Time;durP1;ratioP1;P1;durP2;ratioP2;P2;SDS_P1;SDS_P2;PMS_P1;PMS_P2;Temp;Humidity;BMP_temperature;BMP_pressure;BME280_temperature;BME280_humidity;BME280_pressure;Samples;Min_cycle;Max_cycle;Signal;HPM_P1;HPM_P2
2022/04/14 00:01:58;;;;;;;7.15;2.40;;;;;;;;;;5053477;28;20029;-74
2022/04/14 00:04:32;;;;;;;6.35;2.13;;;;;;;;;;5052003;28;20032;-75
2022/04/14 00:07:00;;;;;;;8.00;2.05;;;;;;;;;;5053482;28;20025;-78
2022/04/14 00:09:28;;;;;;;9.00;2.28;;;;;;;;;;5051517;28;20021;-74
2022/04/14 00:11:56;;;;;;;6.43;1.67;;;;;;;;;;5051760;28;20082;-74
2022/04/14 00:14:24;;;;;;;6.22;1.30;;;;;;;;;;5035434;28;20397;-72
2022/04/14 00:16:51;;;;;;;6.00;1.30;;;;;;;;;;5051847;28;20021;-72
2022/04/14 00:19:18;;;;;;;6.95;1.23;;;;;;;;;;5053023;28;20056;-73
2022/04/14 00:21:45;;;;;;;4.35;1.40;;;;;;;;;;5053001;28;20032;-74
2022/04/14 00:24:12;;;;;;;4.10;1.23;;;;;;;;;;5051714;28;20029;-74
2022/04/14 00:26:39;;;;;;;5.35;1.30;;;;;;;;;;5053123;28;20474;-73
2022/04/14 00:29:06;;;;;;;4.70;1.02;;;;;;;;;;5051670;28;20024;-76
2022/04/14 00:31:34;;;;;;;5.78;0.90;;;;;;;;;;5052896;28;20029;-74
2022/04/14 00:34:01;;;;;;;5.32;1.10;;;;;;;;;;5052873;28;20075;-76
2022/04/14 00:36:28;;;;;;;3.53;1.10;;;;;;;;;;5051548;28;20029;-74
2022/04/14 00:38:56;;;;;;;2.53;0.90;;;;;;;;;;5051513;28;20041;-74
2022/04/14 00:41:23;;;;;;;5.97;1.10;;;;;;;;;;5051468;28;20057;-75
2022/04/14 00:43:54;;;;;;;5.85;1.75;;;;;;;;;;5052681;28;20393;-76
2022/04/14 00:46:21;;;;;;;5.32;1.77;;;;;;;;;;5052765;28;20436;-75
2022/04/14 00:48:50;;;;;;;5.90;1.50;;;;;;;;;;5051272;28;20098;-75
2022/04/14 00:51:17;;;;;;;5.15;1.63;;;;;;;;;;5051349;28;20032;-75
2022/04/14 00:53:44;;;;;;;7.05;1.77;;;;;;;;;;5052650;28;20027;-74
2022/04/14 00:56:11;;;;;;;9.30;1.58;;;;;;;;;;5052613;28;20359;-72
2022/04/14 00:58:40;;;;;;;5.18;1.45;;;;;;;;;;5052568;28;20072;-74
2022/04/14 01:01:08;;;;;;;7.55;1.65;;;;;;;;;;5051546;28;20048;-75
2022/04/14 01:03:36;;;;;;;5.15;1.40;;;;;;;;;;5050938;28;20023;-74
2022/04/14 01:06:06;;;;;;;4.43;1.30;;;;;;;;;;5052505;28;20376;-72
2022/04/14 01:08:33;;;;;;;6.13;1.73;;;;;;;;;;5052361;28;20013;-73
2022/04/14 01:11:01;;;;;;;6.35;1.35;;;;;;;;;;5052309;28;20359;-74
2022/04/14 01:13:28;;;;;;;6.07;1.38;;;;;;;;;;5052331;28;20059;-72
2022/04/14 01:15:59;;;;;;;5.00;1.08;;;;;;;;;;5052247;28;20025;-72
2022/04/14 01:18:27;;;;;;;4.57;1.02;;;;;;;;;;5052334;28;20021;-71
2022/04/14 01:20:54;;;;;;;4.80;1.08;;;;;;;;;;5051886;28;20032;-72
2022/04/14 01:23:26;;;;;;;1.38;0.40;;;;;;;;;;5051566;28;20017;-74
2022/04/14 01:25:53;;;;;;;4.28;0.90;;;;;;;;;;5052201;28;20504;-73
2022/04/14 01:28:20;;;;;;;6.53;1.15;;;;;;;;;;5051123;28;20028;-72
2022/04/14 01:30:47;;;;;;;5.10;1.33;;;;;;;;;;5052003;28;20227;-72
2022/04/14 01:33:16;;;;;;;1.92;0.40;;;;;;;;;;5051996;28;20424;-72
2022/04/14 01:35:43;;;;;;;0.80;0.25;;;;;;;;;;5050702;28;20113;-75
2022/04/14 01:38:11;;;;;;;2.30;0.30;;;;;;;;;;5052012;28;20333;-72
2022/04/14 01:40:38;;;;;;;1.33;0.20;;;;;;;;;;5052041;28;20023;-74
2022/04/14 01:43:05;;;;;;;0.82;0.30;;;;;;;;;;5050657;28;20028;-74
2022/04/14 01:45:32;;;;;;;1.63;0.22;;;;;;;;;;5050685;28;20063;-75
2022/04/14 01:47:59;;;;;;;3.30;0.30;;;;;;;;;;5051808;28;20114;-72
2022/04/14 01:50:26;;;;;;;0.93;0.17;;;;;;;;;;5050665;28;20025;-75
2022/04/14 01:52:53;;;;;;;1.48;0.22;;;;;;;;;;5051905;28;20435;-75
2022/04/14 01:55:21;;;;;;;2.10;0.20;;;;;;;;;;5051853;28;20025;-76
2022/04/14 01:57:48;;;;;;;1.52;0.20;;;;;;;;;;5051870;28;20017;-75
2022/04/14 02:00:16;;;;;;;2.53;0.40;;;;;;;;;;5050497;28;20025;-75
2022/04/14 02:02:43;;;;;;;2.20;0.20;;;;;;;;;;5051745;28;20056;-75
2022/04/14 02:05:10;;;;;;;2.20;0.22;;;;;;;;;;5050447;28;20025;-75
2022/04/14 02:07:38;;;;;;;1.75;0.40;;;;;;;;;;5052075;28;20389;-75
2022/04/14 02:10:05;;;;;;;1.42;0.10;;;;;;;;;;5050229;28;20028;-74
2022/04/14 02:12:34;;;;;;;1.58;0.20;;;;;;;;;;5051587;28;20032;-73
2022/04/14 02:15:02;;;;;;;1.90;0.30;;;;;;;;;;5052432;28;20025;-75
2022/04/14 02:17:29;;;;;;;2.38;0.28;;;;;;;;;;5052164;28;20166;-72
2022/04/14 02:19:56;;;;;;;3.17;0.20;;;;;;;;;;5051614;28;20025;-72
2022/04/14 02:22:23;;;;;;;1.30;0.20;;;;;;;;;;5051430;28;20029;-73
2022/04/14 02:24:50;;;;;;;0.80;0.20;;;;;;;;;;5051743;28;20025;-71
2022/04/14 02:27:21;;;;;;;1.90;0.30;;;;;;;;;;5052271;28;20432;-73
2022/04/14 02:29:48;;;;;;;2.15;0.30;;;;;;;;;;5050631;28;20029;-73
2022/04/14 02:32:15;;;;;;;1.27;0.30;;;;;;;;;;5051638;28;20424;-73
2022/04/14 02:34:43;;;;;;;0.38;0.15;;;;;;;;;;5054882;28;20438;-72
2022/04/14 02:37:10;;;;;;;2.42;0.30;;;;;;;;;;5053977;28;20049;-72
2022/04/14 02:39:37;;;;;;;3.13;0.50;;;;;;;;;;5054007;28;20489;-72
2022/04/14 02:42:04;;;;;;;1.58;0.15;;;;;;;;;;5055226;28;20025;-72
2022/04/14 02:44:31;;;;;;;0.93;0.20;;;;;;;;;;5054981;28;20043;-72
2022/04/14 02:46:58;;;;;;;3.65;0.40;;;;;;;;;;5053485;28;20021;-72
2022/04/14 02:49:26;;;;;;;0.77;0.10;;;;;;;;;;5053751;28;20037;-73
2022/04/14 02:51:53;;;;;;;1.30;0.20;;;;;;;;;;5054879;28;20028;-73
2022/04/14 02:54:20;;;;;;;1.92;0.17;;;;;;;;;;5055009;28;20013;-71
2022/04/14 02:56:47;;;;;;;1.27;0.28;;;;;;;;;;5054841;28;20428;-73
2022/04/14 02:59:14;;;;;;;1.98;0.13;;;;;;;;;;5053597;28;20025;-73
2022/04/14 03:01:41;;;;;;;1.70;0.10;;;;;;;;;;5054786;28;20029;-72
2022/04/14 03:04:09;;;;;;;4.10;0.30;;;;;;;;;;5053441;28;20477;-73
2022/04/14 03:06:36;;;;;;;1.38;0.15;;;;;;;;;;5054799;28;20096;-73
2022/04/14 03:09:03;;;;;;;0.73;0.20;;;;;;;;;;5054747;28;20024;-73
2022/04/14 03:11:30;;;;;;;1.45;0.10;;;;;;;;;;5054507;28;20146;-73
2022/04/14 03:13:58;;;;;;;0.38;0.10;;;;;;;;;;5053422;28;20052;-73
2022/04/14 03:16:25;;;;;;;2.40;0.10;;;;;;;;;;5054579;28;20473;-74
2022/04/14 03:18:52;;;;;;;1.77;0.40;;;;;;;;;;5053211;28;20112;-72
2022/04/14 03:21:19;;;;;;;1.63;0.30;;;;;;;;;;5054405;28;20090;-73
2022/04/14 03:23:46;;;;;;;1.60;0.10;;;;;;;;;;5053187;28;20479;-72
2022/04/14 03:26:13;;;;;;;2.78;0.50;;;;;;;;;;5054488;28;20024;-70
2022/04/14 03:28:40;;;;;;;1.58;0.10;;;;;;;;;;5053140;28;20028;-73
2022/04/14 03:31:08;;;;;;;2.28;0.30;;;;;;;;;;5054411;28;20029;-73
2022/04/14 03:33:35;;;;;;;1.63;0.22;;;;;;;;;;5053025;28;20481;-72
2022/04/14 03:36:02;;;;;;;4.55;0.60;;;;;;;;;;5052934;28;20124;-74
2022/04/14 03:38:30;;;;;;;1.42;0.50;;;;;;;;;;5054212;28;20017;-72
2022/04/14 03:40:59;;;;;;;1.73;0.20;;;;;;;;;;5053989;28;20025;-72
2022/04/14 03:43:26;;;;;;;3.83;0.68;;;;;;;;;;5053973;28;20021;-73
2022/04/14 03:45:53;;;;;;;1.42;0.40;;;;;;;;;;5053001;28;20025;-72
2022/04/14 03:48:20;;;;;;;2.75;0.30;;;;;;;;;;5053831;28;20037;-72
2022/04/14 03:50:48;;;;;;;1.65;0.30;;;;;;;;;;5053984;28;20083;-72
2022/04/14 03:53:15;;;;;;;2.28;0.40;;;;;;;;;;5052538;28;20033;-72
2022/04/14 03:55:42;;;;;;;3.38;0.60;;;;;;;;;;5053858;28;20078;-72
2022/04/14 03:58:09;;;;;;;1.90;0.30;;;;;;;;;;5053781;28;20017;-71
2022/04/14 04:00:36;;;;;;;0.95;0.20;;;;;;;;;;5052386;28;20028;-73
2022/04/14 04:03:03;;;;;;;2.15;0.30;;;;;;;;;;5053563;28;20035;-72
2022/04/14 04:05:31;;;;;;;0.85;0.30;;;;;;;;;;5053401;28;20028;-73
2022/04/14 04:07:58;;;;;;;1.27;0.20;;;;;;;;;;5052292;28;20112;-71
2022/04/14 04:10:25;;;;;;;3.92;0.50;;;;;;;;;;5053383;28;20092;-71
2022/04/14 04:12:52;;;;;;;0.95;0.22;;;;;;;;;;5052117;28;20087;-72
2022/04/14 04:15:19;;;;;;;1.98;0.38;;;;;;;;;;5052036;28;20021;-73
2022/04/14 04:17:46;;;;;;;3.38;0.98;;;;;;;;;;5052111;28;20021;-71
2022/04/14 04:20:14;;;;;;;0.80;0.20;;;;;;;;;;5053337;28;20033;-73
2022/04/14 04:22:41;;;;;;;1.33;0.40;;;;;;;;;;5053294;28;20025;-72
2022/04/14 04:25:08;;;;;;;2.58;0.35;;;;;;;;;;5053165;28;20020;-73
2022/04/14 04:27:36;;;;;;;3.28;0.43;;;;;;;;;;5053145;28;20622;-71
2022/04/14 04:30:07;;;;;;;3.83;0.68;;;;;;;;;;5053036;28;20024;-72
2022/04/14 04:32:34;;;;;;;2.42;0.30;;;;;;;;;;5053018;28;20397;-72
2022/04/14 04:35:06;;;;;;;1.45;0.30;;;;;;;;;;5052963;28;20021;-72
2022/04/14 04:37:34;;;;;;;1.27;0.40;;;;;;;;;;5051679;28;20047;-73
2022/04/14 04:40:01;;;;;;;1.40;0.30;;;;;;;;;;5052642;28;20032;-73
2022/04/14 04:42:28;;;;;;;2.58;0.32;;;;;;;;;;5051476;28;20029;-73
2022/04/14 04:44:55;;;;;;;2.30;0.15;;;;;;;;;;5051682;28;20032;-73
2022/04/14 04:47:22;;;;;;;1.65;0.20;;;;;;;;;;5051203;28;20053;-73
2022/04/14 04:49:49;;;;;;;2.55;0.35;;;;;;;;;;5051208;28;20036;-73
2022/04/14 04:52:17;;;;;;;2.53;0.32;;;;;;;;;;5052580;28;20087;-74
2022/04/14 04:54:44;;;;;;;4.00;0.28;;;;;;;;;;5051181;28;20025;-73
2022/04/14 04:57:11;;;;;;;2.42;0.25;;;;;;;;;;5052348;28;20485;-74
2022/04/14 04:59:38;;;;;;;1.40;0.25;;;;;;;;;;5052314;28;20045;-74
2022/04/14 05:02:06;;;;;;;2.42;0.28;;;;;;;;;;5052567;28;20084;-74
2022/04/14 05:04:33;;;;;;;2.08;0.20;;;;;;;;;;5052407;28;20036;-74
2022/04/14 05:07:00;;;;;;;1.98;0.40;;;;;;;;;;5052430;28;20481;-74
2022/04/14 05:09:29;;;;;;;1.73;0.20;;;;;;;;;;5051079;28;20025;-73
2022/04/14 05:11:56;;;;;;;1.05;0.28;;;;;;;;;;5052222;28;20119;-72
2022/04/14 05:14:23;;;;;;;3.17;0.30;;;;;;;;;;5052227;28;20031;-73
2022/04/14 05:16:50;;;;;;;2.55;0.25;;;;;;;;;;5050904;28;20040;-72
2022/04/14 05:19:17;;;;;;;1.55;0.20;;;;;;;;;;5050938;28;20025;-73
2022/04/14 05:21:47;;;;;;;1.98;0.20;;;;;;;;;;5052128;28;20393;-74
2022/04/14 05:24:14;;;;;;;1.98;0.20;;;;;;;;;;5050896;28;20025;-73
2022/04/14 05:26:41;;;;;;;1.38;0.20;;;;;;;;;;5050795;28;20031;-74
2022/04/14 05:29:09;;;;;;;1.83;0.30;;;;;;;;;;5050979;28;20021;-73
2022/04/14 05:31:36;;;;;;;2.58;0.30;;;;;;;;;;5052033;28;20021;-73
2022/04/14 05:34:03;;;;;;;3.55;0.63;;;;;;;;;;5052034;28;20021;-72
2022/04/14 05:36:31;;;;;;;1.73;0.30;;;;;;;;;;5050714;28;20247;-73
2022/04/14 05:38:58;;;;;;;3.22;0.35;;;;;;;;;;5050622;28;20512;-72
2022/04/14 05:41:25;;;;;;;2.65;0.20;;;;;;;;;;5050677;28;20021;-72
2022/04/14 05:43:52;;;;;;;1.55;0.25;;;;;;;;;;5051937;28;20049;-72
2022/04/14 05:46:20;;;;;;;4.97;0.52;;;;;;;;;;5051978;28;20389;-72
2022/04/14 05:48:48;;;;;;;3.67;0.63;;;;;;;;;;5050343;28;20045;-73
2022/04/14 05:51:15;;;;;;;3.90;0.30;;;;;;;;;;5050648;28;20040;-74
2022/04/14 05:53:42;;;;;;;4.07;0.35;;;;;;;;;;5051816;28;20381;-75
2022/04/14 05:56:10;;;;;;;2.58;0.40;;;;;;;;;;5050351;28;20067;-76
2022/04/14 05:58:37;;;;;;;1.58;0.30;;;;;;;;;;5051504;28;20040;-75
2022/04/14 06:01:08;;;;;;;1.98;0.22;;;;;;;;;;5051624;28;20029;-76
2022/04/14 06:03:35;;;;;;;2.10;0.22;;;;;;;;;;5051580;28;20028;-75
2022/04/14 06:06:02;;;;;;;4.85;0.45;;;;;;;;;;5051794;28;20017;-76
2022/04/14 06:08:30;;;;;;;1.45;0.20;;;;;;;;;;5053322;28;20021;-76
2022/04/14 06:10:58;;;;;;;2.38;0.30;;;;;;;;;;5055635;28;20090;-76
2022/04/14 06:13:25;;;;;;;2.28;0.30;;;;;;;;;;5054388;28;20394;-76
2022/04/14 06:15:52;;;;;;;3.40;0.40;;;;;;;;;;5054346;28;20029;-75
2022/04/14 06:18:21;;;;;;;3.88;0.68;;;;;;;;;;5053964;28;20059;-75
2022/04/14 06:20:49;;;;;;;1.35;0.25;;;;;;;;;;5053998;28;20049;-76
2022/04/14 06:23:17;;;;;;;1.13;0.10;;;;;;;;;;5053951;28;20112;-73
2022/04/14 06:25:50;;;;;;;2.17;0.28;;;;;;;;;;5055460;28;20104;-72
2022/04/14 06:28:20;;;;;;;3.33;0.52;;;;;;;;;;5054361;28;20404;-72
2022/04/14 06:30:47;;;;;;;2.90;0.22;;;;;;;;;;5055352;28;20025;-72
2022/04/14 06:33:16;;;;;;;3.47;0.45;;;;;;;;;;5055103;28;20028;-70
2022/04/14 06:35:44;;;;;;;0.70;0.20;;;;;;;;;;5053941;28;20024;-72
2022/04/14 06:38:11;;;;;;;1.90;0.32;;;;;;;;;;5055146;28;20017;-72
2022/04/14 06:40:38;;;;;;;1.67;0.40;;;;;;;;;;5055038;28;20082;-71
2022/04/14 06:43:06;;;;;;;2.40;0.55;;;;;;;;;;5054992;28;20079;-72
2022/04/14 06:45:33;;;;;;;3.63;0.30;;;;;;;;;;5053581;28;20032;-71
2022/04/14 06:48:01;;;;;;;3.95;0.32;;;;;;;;;;5054726;28;20044;-72
2022/04/14 06:50:28;;;;;;;1.48;0.20;;;;;;;;;;5054895;28;20104;-71
2022/04/14 06:52:56;;;;;;;1.73;0.30;;;;;;;;;;5054656;28;20184;-73
2022/04/14 06:55:23;;;;;;;1.77;0.30;;;;;;;;;;5053478;28;20025;-72
2022/04/14 06:57:51;;;;;;;1.27;0.30;;;;;;;;;;5054647;28;20088;-70
2022/04/14 07:00:18;;;;;;;3.65;0.30;;;;;;;;;;5054766;28;20032;-69
2022/04/14 07:02:49;;;;;;;2.53;0.40;;;;;;;;;;5054704;28;20095;-72
2022/04/14 07:05:16;;;;;;;;;;;;;;;;;;5055121;28;20358;-73
2022/04/14 07:07:43;;;;;;;4.25;0.22;;;;;;;;;;5054575;28;19908;-73
2022/04/14 07:10:14;;;;;;;2.75;0.20;;;;;;;;;;5054620;28;20021;-73
2022/04/14 07:12:41;;;;;;;2.13;0.30;;;;;;;;;;5054326;28;20406;-72
2022/04/14 07:15:09;;;;;;;2.50;0.25;;;;;;;;;;5054631;28;20067;-71
2022/04/14 07:17:36;;;;;;;0.98;0.20;;;;;;;;;;5054352;28;20478;-72
2022/04/14 07:20:04;;;;;;;0.68;0.20;;;;;;;;;;5054160;28;20055;-72
2022/04/14 07:22:32;;;;;;;1.10;0.40;;;;;;;;;;5052857;28;20055;-71
2022/04/14 07:24:59;;;;;;;1.98;0.30;;;;;;;;;;5052743;28;20025;-73
2022/04/14 07:27:27;;;;;;;1.90;0.20;;;;;;;;;;5054008;28;20393;-72
2022/04/14 07:29:56;;;;;;;2.28;0.40;;;;;;;;;;5053970;28;20036;-72
2022/04/14 07:32:23;;;;;;;1.65;0.30;;;;;;;;;;5054187;28;20024;-71
2022/04/14 07:34:51;;;;;;;1.83;0.20;;;;;;;;;;5052642;28;20094;-71
2022/04/14 07:37:18;;;;;;;1.08;0.22;;;;;;;;;;5053839;28;20505;-69
2022/04/14 07:39:45;;;;;;;1.85;0.40;;;;;;;;;;5053812;28;20017;-71
2022/04/14 07:42:13;;;;;;;2.17;0.32;;;;;;;;;;5052500;28;20029;-71
2022/04/14 07:44:40;;;;;;;1.90;0.30;;;;;;;;;;5053725;28;20085;-72
2022/04/14 07:47:07;;;;;;;0.85;0.30;;;;;;;;;;5052177;28;20060;-73
2022/04/14 07:49:34;;;;;;;2.20;0.30;;;;;;;;;;5052450;28;20032;-74
2022/04/14 07:52:01;;;;;;;4.43;0.70;;;;;;;;;;5052203;28;20073;-72
2022/04/14 07:54:30;;;;;;;3.60;0.40;;;;;;;;;;5052214;28;20049;-72
2022/04/14 07:56:59;;;;;;;1.38;0.40;;;;;;;;;;5053511;28;20021;-72
2022/04/14 07:59:26;;;;;;;3.38;0.40;;;;;;;;;;5052113;28;20097;-72
2022/04/14 08:01:53;;;;;;;4.65;0.90;;;;;;;;;;5053547;28;20021;-71
2022/04/14 08:04:21;;;;;;;2.55;0.88;;;;;;;;;;5053279;28;20556;-71
2022/04/14 08:06:48;;;;;;;2.38;0.60;;;;;;;;;;5053367;28;20021;-69
2022/04/14 08:09:15;;;;;;;2.90;0.43;;;;;;;;;;5053323;28;20047;-70
2022/04/14 08:11:42;;;;;;;3.40;0.70;;;;;;;;;;5053069;28;20021;-69
2022/04/14 08:14:09;;;;;;;2.92;0.40;;;;;;;;;;5053152;28;20017;-71
2022/04/14 08:16:36;;;;;;;3.85;0.50;;;;;;;;;;5051856;28;20025;-71
2022/04/14 08:19:04;;;;;;;4.03;0.80;;;;;;;;;;5051810;28;20029;-71
2022/04/14 08:21:31;;;;;;;5.25;0.75;;;;;;;;;;5051688;28;20095;-73
2022/04/14 08:23:59;;;;;;;4.63;1.00;;;;;;;;;;5051683;28;20489;-71
2022/04/14 08:26:26;;;;;;;2.25;0.73;;;;;;;;;;5051594;28;20029;-69
2022/04/14 08:28:55;;;;;;;2.53;0.80;;;;;;;;;;5051524;28;20048;-71
2022/04/14 08:31:24;;;;;;;2.75;0.90;;;;;;;;;;5052365;28;20481;-72
2022/04/14 08:33:51;;;;;;;4.22;1.75;;;;;;;;;;5052856;28;20090;-71
2022/04/14 08:36:21;;;;;;;3.53;1.58;;;;;;;;;;5051622;28;20108;-71
2022/04/14 08:38:50;;;;;;;6.57;1.85;;;;;;;;;;5052884;28;20092;-71
2022/04/14 08:41:21;;;;;;;5.90;2.30;;;;;;;;;;5052831;28;20031;-71
2022/04/14 08:43:52;;;;;;;5.25;1.92;;;;;;;;;;5052727;28;20075;-71
2022/04/14 08:46:20;;;;;;;5.30;2.05;;;;;;;;;;5051386;28;20025;-71
2022/04/14 08:48:52;;;;;;;4.30;1.65;;;;;;;;;;5052546;28;20044;-72
2022/04/14 08:51:23;;;;;;;4.45;1.60;;;;;;;;;;5052545;28;20025;-71
2022/04/14 08:53:49;;;;;;;;;;;;;;;;;;5051861;28;20044;-71
2022/04/14 08:56:16;;;;;;;2.45;1.38;;;;;;;;;;5051270;28;19904;-70
2022/04/14 08:58:44;;;;;;;3.60;1.40;;;;;;;;;;5051252;28;20086;-70
2022/04/14 09:01:16;;;;;;;5.28;1.42;;;;;;;;;;5052432;28;20025;-71
2022/04/14 09:03:43;;;;;;;4.10;1.85;;;;;;;;;;5051170;28;20049;-72
2022/04/14 09:06:10;;;;;;;3.90;1.70;;;;;;;;;;5052799;28;20025;-71
2022/04/14 09:08:38;;;;;;;4.13;1.58;;;;;;;;;;5051047;28;20025;-69
2022/04/14 09:11:08;;;;;;;6.97;1.50;;;;;;;;;;5052374;28;20095;-68
2022/04/14 09:13:43;;;;;;;4.22;1.50;;;;;;;;;;5050904;28;20486;-72
2022/04/14 09:16:11;;;;;;;5.93;1.52;;;;;;;;;;5050950;28;20017;-70
2022/04/14 09:18:38;;;;;;;3.03;1.30;;;;;;;;;;5050835;28;20075;-71
2022/04/14 09:21:05;;;;;;;4.93;1.77;;;;;;;;;;5052064;28;20017;-73
2022/04/14 09:23:33;;;;;;;6.72;2.70;;;;;;;;;;5052015;28;20024;-70
2022/04/14 09:26:13;;;;;;;6.25;3.97;;;;;;;;;;5052020;28;20100;-68
2022/04/14 09:28:40;;;;;;;;;;;;;;;;;;5052359;28;20495;-72
2022/04/14 09:31:11;;;;;;;4.38;1.75;;;;;;;;;;5050467;28;19939;-71
2022/04/14 09:33:46;;;;;;;5.03;2.00;;;;;;;;;;5050504;28;20039;-72
2022/04/14 09:36:21;;;;;;;5.20;2.05;;;;;;;;;;5050571;28;20021;-70
2022/04/14 09:38:56;;;;;;;3.40;1.60;;;;;;;;;;5050657;28;20017;-72
2022/04/14 09:41:32;;;;;;;5.25;2.05;;;;;;;;;;5050537;28;20043;-71
2022/04/14 09:44:00;;;;;;;4.15;2.00;;;;;;;;;;5054480;28;20029;-72
2022/04/14 09:46:28;;;;;;;4.50;2.25;;;;;;;;;;5054723;28;20399;-71
2022/04/14 09:49:05;;;;;;;6.00;2.03;;;;;;;;;;5055858;28;20093;-71
2022/04/14 09:51:33;;;;;;;4.88;1.80;;;;;;;;;;5054511;28;20103;-71
2022/04/14 09:54:19;;;;;;;3.17;1.65;;;;;;;;;;5055905;28;20021;-72
2022/04/14 09:56:46;;;;;;;3.55;1.58;;;;;;;;;;5054879;28;20454;-71
2022/04/14 09:59:16;;;;;;;3.05;1.55;;;;;;;;;;5055771;28;20499;-71
2022/04/14 10:01:44;;;;;;;5.03;1.73;;;;;;;;;;5055676;28;20166;-72
2022/04/14 10:04:31;;;;;;;3.30;1.27;;;;;;;;;;5055618;28;20116;-72
2022/04/14 10:07:06;;;;;;;4.88;1.83;;;;;;;;;;5054366;28;20032;-70
2022/04/14 10:09:35;;;;;;;4.30;1.48;;;;;;;;;;5054379;28;20044;-70
2022/04/14 10:12:03;;;;;;;6.57;1.40;;;;;;;;;;5055510;28;20029;-72
2022/04/14 10:14:30;;;;;;;4.30;1.67;;;;;;;;;;5055592;28;20100;-72
2022/04/14 10:16:59;;;;;;;4.13;1.55;;;;;;;;;;5054172;28;20024;-71
2022/04/14 10:19:26;;;;;;;4.20;1.88;;;;;;;;;;5055360;28;20013;-72
2022/04/14 10:21:55;;;;;;;4.75;1.95;;;;;;;;;;5054372;28;20025;-72
2022/04/14 10:24:24;;;;;;;4.32;2.10;;;;;;;;;;5054040;28;20036;-72
2022/04/14 10:26:52;;;;;;;4.93;2.25;;;;;;;;;;5055337;28;20114;-71
2022/04/14 10:29:19;;;;;;;4.68;2.38;;;;;;;;;;5055209;28;20051;-71
2022/04/14 10:31:53;;;;;;;5.43;2.70;;;;;;;;;;5053814;28;20025;-71
2022/04/14 10:34:22;;;;;;;3.72;2.20;;;;;;;;;;5055161;28;20028;-71
2022/04/14 10:36:51;;;;;;;3.63;1.98;;;;;;;;;;5054988;28;20021;-72
2022/04/14 10:39:19;;;;;;;7.25;2.10;;;;;;;;;;5055042;28;20028;-71
2022/04/14 10:41:49;;;;;;;4.85;2.08;;;;;;;;;;5053602;28;20185;-71
2022/04/14 10:44:20;;;;;;;5.97;2.00;;;;;;;;;;5055087;28;20477;-71
2022/04/14 10:46:50;;;;;;;5.53;2.10;;;;;;;;;;5053450;28;20029;-72
2022/04/14 10:49:18;;;;;;;4.53;1.95;;;;;;;;;;5055071;28;20437;-71
2022/04/14 10:51:45;;;;;;;5.47;2.30;;;;;;;;;;5054760;28;20029;-73
2022/04/14 10:54:15;;;;;;;3.50;2.00;;;;;;;;;;5053087;28;20036;-72
2022/04/14 10:56:47;;;;;;;7.33;2.37;;;;;;;;;;5053477;28;20393;-71
2022/04/14 10:59:21;;;;;;;5.05;2.28;;;;;;;;;;5053403;28;20040;-71
2022/04/14 11:01:51;;;;;;;6.60;2.42;;;;;;;;;;5054655;28;20044;-70
2022/04/14 11:04:27;;;;;;;4.00;2.08;;;;;;;;;;5054601;28;20056;-71
2022/04/14 11:07:01;;;;;;;6.07;2.60;;;;;;;;;;5054577;28;20036;-70
2022/04/14 11:09:43;;;;;;;4.53;2.20;;;;;;;;;;5054657;28;20028;-72
2022/04/14 11:12:19;;;;;;;4.45;2.10;;;;;;;;;;5054425;28;20068;-72
2022/04/14 11:14:58;;;;;;;4.57;2.30;;;;;;;;;;5053466;28;20633;-71
2022/04/14 11:17:38;;;;;;;5.82;2.50;;;;;;;;;;5054460;28;20017;-71
2022/04/14 11:20:23;;;;;;;5.57;2.20;;;;;;;;;;5054336;28;20041;-70
2022/04/14 11:23:13;;;;;;;6.65;2.63;;;;;;;;;;5052846;28;20032;-71
2022/04/14 11:25:49;;;;;;;6.25;2.47;;;;;;;;;;5052983;28;20025;-71
2022/04/14 11:28:17;;;;;;;8.00;2.85;;;;;;;;;;5054249;28;20393;-71
2022/04/14 11:30:45;;;;;;;5.10;2.70;;;;;;;;;;5054194;28;20041;-70
2022/04/14 11:33:25;;;;;;;5.95;2.78;;;;;;;;;;5053936;28;20033;-72
2022/04/14 11:35:52;;;;;;;5.18;2.10;;;;;;;;;;5054018;28;20504;-72
2022/04/14 11:38:38;;;;;;;4.03;2.15;;;;;;;;;;5053986;28;20013;-72
2022/04/14 11:41:05;;;;;;;7.00;2.83;;;;;;;;;;5053958;28;20082;-71
2022/04/14 11:43:32;;;;;;;5.68;2.55;;;;;;;;;;5053728;28;20496;-70
2022/04/14 11:46:00;;;;;;;4.43;2.60;;;;;;;;;;5052761;28;20125;-73
2022/04/14 11:48:27;;;;;;;5.15;2.50;;;;;;;;;;5053595;28;20525;-70
2022/04/14 11:50:56;;;;;;;7.22;2.53;;;;;;;;;;5053698;28;20048;-70
2022/04/14 11:53:30;;;;;;;6.95;2.75;;;;;;;;;;5053602;28;20028;-71
2022/04/14 11:55:57;;;;;;;7.13;2.25;;;;;;;;;;5053750;28;20059;-71
2022/04/14 11:58:24;;;;;;;5.32;2.50;;;;;;;;;;5053628;28;20032;-71
2022/04/14 12:00:52;;;;;;;4.95;2.63;;;;;;;;;;5053380;28;20074;-72
2022/04/14 12:03:32;;;;;;;8.57;2.38;;;;;;;;;;5052174;28;20489;-72
2022/04/14 12:06:04;;;;;;;3.47;2.40;;;;;;;;;;5052695;28;20044;-72
2022/04/14 12:08:31;;;;;;;9.10;2.22;;;;;;;;;;5052088;28;20399;-74
2022/04/14 12:11:02;;;;;;;4.68;2.38;;;;;;;;;;5053379;28;20473;-72
2022/04/14 12:13:33;;;;;;;4.25;2.20;;;;;;;;;;5052046;28;20490;-72
2022/04/14 12:16:01;;;;;;;4.35;2.45;;;;;;;;;;5053478;28;20040;-72
2022/04/14 12:18:29;;;;;;;7.35;3.15;;;;;;;;;;5053309;28;20024;-73
2022/04/14 12:20:56;;;;;;;6.63;2.75;;;;;;;;;;5053188;28;20362;-72
2022/04/14 12:23:24;;;;;;;5.57;2.47;;;;;;;;;;5053101;28;20047;-72
2022/04/14 12:25:52;;;;;;;7.25;2.63;;;;;;;;;;5052998;28;20029;-70
2022/04/14 12:28:20;;;;;;;4.68;2.17;;;;;;;;;;5052919;28;20444;-71
2022/04/14 12:30:47;;;;;;;6.03;2.17;;;;;;;;;;5051612;28;20120;-71
2022/04/14 12:33:15;;;;;;;4.75;2.45;;;;;;;;;;5052817;28;20029;-73
2022/04/14 12:35:43;;;;;;;7.50;2.83;;;;;;;;;;5052925;28;20021;-72
2022/04/14 12:38:15;;;;;;;6.60;2.58;;;;;;;;;;5051552;28;20075;-70
2022/04/14 12:41:00;;;;;;;4.53;2.38;;;;;;;;;;5051472;28;20112;-71
2022/04/14 12:43:37;;;;;;;6.88;2.42;;;;;;;;;;5052927;28;20023;-71
2022/04/14 12:46:22;;;;;;;4.20;2.33;;;;;;;;;;5051296;28;20028;-71
2022/04/14 12:49:00;;;;;;;4.93;2.35;;;;;;;;;;5051442;28;20057;-72
2022/04/14 12:51:32;;;;;;;4.88;2.60;;;;;;;;;;5052761;28;20413;-72
2022/04/14 12:54:01;;;;;;;4.70;2.17;;;;;;;;;;5052646;28;20481;-72
2022/04/14 12:56:34;;;;;;;5.45;1.92;;;;;;;;;;5035094;28;20090;-71
2022/04/14 12:59:12;;;;;;;4.20;2.55;;;;;;;;;;5051351;28;20029;-71
2022/04/14 13:01:46;;;;;;;3.72;2.30;;;;;;;;;;5052524;28;20025;-71
2022/04/14 13:04:13;;;;;;;5.22;2.30;;;;;;;;;;5052465;28;20535;-71
2022/04/14 13:06:41;;;;;;;5.43;2.20;;;;;;;;;;5052497;28;20536;-71
2022/04/14 13:09:15;;;;;;;5.78;2.60;;;;;;;;;;5052505;28;20033;-72
2022/04/14 13:11:46;;;;;;;7.15;2.60;;;;;;;;;;5052314;28;20029;-71
2022/04/14 13:14:17;;;;;;;4.47;2.22;;;;;;;;;;5051074;28;20099;-69
2022/04/14 13:16:45;;;;;;;4.88;2.40;;;;;;;;;;5050914;28;20452;-71
2022/04/14 13:19:12;;;;;;;5.70;2.45;;;;;;;;;;5052313;28;20029;-71
2022/04/14 13:21:40;;;;;;;5.10;2.50;;;;;;;;;;5052315;28;20033;-70
2022/04/14 13:24:07;;;;;;;6.13;2.38;;;;;;;;;;5050983;28;20529;-70
2022/04/14 13:26:35;;;;;;;4.28;2.50;;;;;;;;;;5052249;28;20423;-71
2022/04/14 13:29:03;;;;;;;6.80;2.78;;;;;;;;;;5052173;28;20108;-70
2022/04/14 13:31:30;;;;;;;4.93;2.60;;;;;;;;;;5052067;28;20048;-71
2022/04/14 13:33:57;;;;;;;4.57;2.13;;;;;;;;;;5052146;28;20017;-73
2022/04/14 13:36:25;;;;;;;5.68;2.97;;;;;;;;;;5050730;28;20020;-72
2022/04/14 13:38:52;;;;;;;6.25;2.67;;;;;;;;;;5050737;28;20029;-74
2022/04/14 13:41:19;;;;;;;6.43;2.72;;;;;;;;;;5052075;28;20021;-72
2022/04/14 13:43:46;;;;;;;4.18;2.63;;;;;;;;;;5051968;28;20032;-72
2022/04/14 13:46:14;;;;;;;6.80;2.33;;;;;;;;;;5050841;28;20032;-71
2022/04/14 13:48:41;;;;;;;3.72;2.25;;;;;;;;;;5050541;28;20448;-73
2022/04/14 13:51:10;;;;;;;4.30;2.35;;;;;;;;;;5050708;28;20025;-72
2022/04/14 13:53:41;;;;;;;5.60;2.35;;;;;;;;;;5051872;28;20497;-71
2022/04/14 13:56:07;;;;;;;;;;;;;;;;;;5052182;28;20025;-71
2022/04/14 13:58:35;;;;;;;5.18;2.45;;;;;;;;;;5051850;28;19915;-72
2022/04/14 14:01:07;;;;;;;4.28;2.25;;;;;;;;;;5050814;28;20029;-71
2022/04/14 14:03:34;;;;;;;6.05;2.17;;;;;;;;;;5050268;28;20386;-71
2022/04/14 14:06:02;;;;;;;7.03;2.53;;;;;;;;;;5050320;28;20029;-71
2022/04/14 14:08:29;;;;;;;4.50;2.30;;;;;;;;;;5051601;28;20029;-72
2022/04/14 14:10:56;;;;;;;4.95;2.10;;;;;;;;;;5050360;28;20044;-72
2022/04/14 14:13:23;;;;;;;5.90;2.33;;;;;;;;;;5051589;28;20108;-71
2022/04/14 14:15:51;;;;;;;6.93;2.58;;;;;;;;;;5050376;28;20052;-71
2022/04/14 14:18:19;;;;;;;5.13;2.40;;;;;;;;;;5051616;28;20465;-71
2022/04/14 14:20:47;;;;;;;5.28;2.17;;;;;;;;;;5050344;28;20032;-73
2022/04/14 14:23:15;;;;;;;4.78;2.30;;;;;;;;;;5050330;28;20025;-72
2022/04/14 14:25:42;;;;;;;6.72;2.75;;;;;;;;;;5050358;28;20116;-71
2022/04/14 14:28:09;;;;;;;6.28;2.42;;;;;;;;;;5050162;28;20056;-72
2022/04/14 14:30:36;;;;;;;4.88;2.72;;;;;;;;;;5054844;28;20032;-73
2022/04/14 14:33:04;;;;;;;5.78;2.45;;;;;;;;;;5055210;28;20021;-71
2022/04/14 14:35:31;;;;;;;5.20;2.45;;;;;;;;;;5055260;28;20025;-72
2022/04/14 14:37:58;;;;;;;5.57;2.05;;;;;;;;;;5054067;28;20472;-71
2022/04/14 14:40:26;;;;;;;5.05;2.33;;;;;;;;;;5055193;28;20385;-71
2022/04/14 14:42:54;;;;;;;5.38;2.20;;;;;;;;;;5053825;28;20025;-71
2022/04/14 14:45:22;;;;;;;5.55;2.60;;;;;;;;;;5055082;28;20055;-71
2022/04/14 14:47:50;;;;;;;6.32;2.00;;;;;;;;;;5054952;28;20056;-71
2022/04/14 14:50:17;;;;;;;4.60;2.65;;;;;;;;;;5053730;28;20025;-71
2022/04/14 14:52:45;;;;;;;6.90;2.22;;;;;;;;;;5053534;28;20025;-71